createdAt,value
2022-11-12T00:00:19.400Z,10.49
2022-11-12T00:05:19.232Z,10.55
2022-11-12T00:10:19.193Z,10.55
2022-11-12T00:15:19.149Z,10.48
2022-11-12T00:20:19.208Z,10.57
2022-11-12T00:25:19.026Z,10.46
2022-11-12T05:00:30.105Z,9.19
2022-11-12T05:05:33.834Z,9.27
2022-11-12T05:10:29.892Z,9.23
2022-11-12T05:15:36.987Z,9.19
2022-11-12T05:20:29.775Z,9.23
2022-11-12T05:25:29.726Z,9.20
2022-11-12T05:30:29.756Z,9.23
2022-11-12T05:35:29.729Z,9.34
2022-11-12T05:40:29.592Z,9.18
2022-11-12T05:45:29.511Z,9.06
2022-11-12T05:50:34.848Z,9.19
2022-11-12T05:55:34.445Z,9.28
2022-11-12T06:00:30.355Z,9.35
2022-11-12T06:05:29.280Z,9.38
2022-11-12T06:10:29.241Z,9.70
2022-11-12T06:15:29.303Z,9.58
2022-11-12T06:20:29.132Z,9.98
2022-11-12T06:25:29.078Z,10.17
2022-11-12T06:30:29.026Z,9.90
2022-11-12T06:35:29.308Z,9.99
2022-11-12T06:40:28.902Z,10.19
2022-11-12T06:45:28.861Z,9.94
2022-11-12T06:50:28.812Z,9.86
2022-11-12T06:55:28.853Z,9.92
2022-11-12T07:00:28.712Z,9.83
2022-11-12T07:05:28.648Z,9.96
2022-11-12T07:10:28.595Z,9.79
2022-11-12T07:15:28.652Z,10.07
2022-11-12T07:20:28.547Z,10.35
2022-11-12T07:25:28.435Z,10.43
2022-11-12T07:30:28.460Z,10.74
2022-11-12T07:35:28.442Z,10.90
2022-11-12T07:40:28.277Z,11.22
2022-11-12T07:45:28.217Z,11.42
2022-11-12T07:50:28.164Z,11.50
2022-11-12T07:55:28.221Z,11.74
2022-11-12T08:00:28.174Z,11.92
2022-11-12T08:05:28.019Z,12.38
2022-11-12T08:10:27.935Z,12.93
2022-11-12T08:15:28.009Z,13.50
2022-11-12T08:20:27.851Z,13.63
2022-11-12T08:25:27.772Z,13.52
2022-11-12T08:30:27.734Z,13.82
2022-11-12T08:35:27.794Z,13.92
2022-11-12T08:40:27.628Z,14.11
2022-11-12T08:45:27.602Z,14.19
2022-11-12T08:50:27.519Z,14.31
2022-11-12T08:55:27.577Z,14.50
2022-11-12T09:00:27.413Z,14.58
2022-11-12T09:05:27.387Z,14.77
2022-11-12T09:10:27.290Z,14.87
2022-11-12T09:15:42.988Z,14.93
2022-11-12T09:20:28.203Z,15.05
2022-11-12T09:25:27.131Z,15.61
2022-11-12T09:30:27.081Z,15.39
2022-11-12T09:35:27.137Z,15.44
2022-11-12T09:40:27.035Z,15.20
2022-11-12T09:45:26.894Z,15.29
2022-11-12T09:50:26.890Z,15.44
2022-11-12T09:55:26.908Z,15.59
2022-11-12T10:00:26.746Z,15.73
2022-11-12T10:05:26.688Z,15.78
2022-11-12T10:10:26.645Z,15.85
2022-11-12T10:15:26.702Z,15.94
2022-11-12T10:20:26.533Z,15.88
2022-11-12T10:25:26.467Z,15.84
2022-11-12T10:30:26.430Z,15.73
2022-11-12T10:35:26.476Z,15.79
2022-11-12T10:40:26.325Z,15.84
2022-11-12T10:45:26.253Z,15.93
2022-11-12T10:50:26.191Z,16.09
2022-11-12T10:55:26.256Z,16.23
2022-11-12T11:00:26.078Z,16.14
2022-11-12T11:05:26.036Z,16.26
2022-11-12T11:10:25.965Z,16.26
2022-11-12T11:15:26.078Z,16.51
2022-11-12T11:20:32.903Z,16.47
2022-11-12T11:25:25.816Z,16.71
2022-11-12T11:30:25.750Z,16.69
2022-11-12T11:35:25.813Z,16.59
2022-11-12T11:40:25.635Z,16.53
2022-11-12T11:45:25.587Z,16.70
2022-11-12T11:50:25.528Z,16.80
2022-11-12T11:55:25.583Z,16.78
2022-11-12T12:00:25.422Z,16.89
2022-11-12T12:05:25.367Z,17.05
2022-11-12T12:10:40.220Z,16.78
2022-11-12T12:15:26.367Z,17.04
2022-11-12T12:20:25.219Z,16.93
2022-11-12T12:25:25.143Z,17.00
2022-11-12T12:30:25.097Z,17.09
2022-11-12T12:35:25.129Z,17.12
2022-11-12T12:40:24.972Z,17.29
2022-11-12T12:45:24.928Z,17.41
2022-11-12T12:50:24.849Z,17.34
2022-11-12T12:55:24.920Z,17.42
2022-11-12T13:00:24.946Z,17.45
2022-11-12T13:05:24.715Z,17.62
2022-11-12T13:10:24.773Z,17.87
2022-11-12T13:15:24.759Z,17.88
2022-11-12T13:20:24.544Z,17.85
2022-11-12T13:25:24.463Z,17.81
2022-11-12T13:30:24.438Z,17.77
2022-11-12T13:35:24.481Z,17.87
2022-11-12T13:40:24.320Z,18.13
2022-11-12T13:45:24.322Z,18.14
2022-11-12T13:50:24.192Z,18.03
2022-11-12T13:55:24.271Z,17.99
2022-11-12T14:00:24.101Z,17.74
2022-11-12T14:05:24.050Z,17.83
2022-11-12T14:10:24.007Z,17.73
2022-11-12T14:15:24.051Z,17.76
2022-11-12T14:20:23.880Z,17.61
2022-11-12T14:25:23.820Z,17.41
2022-11-12T14:30:23.773Z,17.29
2022-11-12T14:35:23.977Z,17.06
2022-11-12T14:40:23.664Z,17.00
2022-11-12T14:45:23.604Z,16.92
2022-11-12T14:50:23.554Z,16.67
2022-11-12T14:55:23.609Z,16.62
2022-11-12T15:00:23.440Z,16.54
2022-11-12T15:05:23.398Z,16.63
2022-11-12T15:10:23.341Z,16.61
2022-11-12T15:15:23.380Z,16.35
2022-11-12T15:20:23.223Z,16.30
2022-11-12T15:25:23.284Z,16.26
2022-11-12T15:30:23.095Z,16.28
2022-11-12T15:35:23.200Z,16.19
2022-11-12T15:40:23.002Z,16.03
2022-11-12T15:45:22.944Z,15.84
2022-11-12T15:50:22.918Z,15.74
2022-11-12T15:55:22.968Z,15.64
2022-11-12T16:00:22.763Z,15.74
2022-11-12T16:05:22.719Z,15.74
2022-11-12T16:10:22.663Z,15.70
2022-11-12T16:15:22.725Z,15.71
2022-11-12T16:20:22.591Z,15.39
2022-11-12T16:25:22.498Z,15.34
2022-11-12T16:30:22.441Z,15.15
2022-11-12T16:35:22.497Z,15.21
2022-11-12T16:40:22.350Z,15.30
2022-11-12T16:45:22.255Z,15.29
2022-11-12T16:50:22.226Z,15.28
2022-11-12T16:55:22.287Z,15.48
2022-11-12T17:00:22.111Z,15.33
2022-11-12T17:05:22.050Z,15.48
2022-11-12T17:10:21.997Z,15.50
2022-11-12T17:15:22.051Z,15.76
2022-11-12T17:20:28.929Z,15.78
2022-11-12T17:25:21.832Z,15.78
2022-11-12T17:30:21.803Z,15.72
2022-11-12T17:35:21.837Z,15.53
2022-11-12T17:40:21.668Z,15.28
2022-11-12T17:45:21.608Z,15.21
2022-11-12T17:50:21.556Z,14.94
2022-11-12T17:55:21.614Z,14.88
2022-11-12T18:00:21.457Z,14.87
2022-11-12T18:05:21.369Z,14.54
2022-11-12T18:10:21.334Z,14.27
2022-11-12T18:15:21.388Z,14.23
2022-11-12T18:20:21.231Z,14.41
2022-11-12T18:25:21.162Z,14.43
2022-11-12T18:30:21.123Z,14.41
2022-11-12T18:35:24.623Z,14.49
2022-11-12T18:40:22.009Z,14.59
2022-11-12T18:45:20.943Z,14.53
2022-11-12T18:50:20.891Z,14.55
2022-11-12T18:55:20.935Z,14.53
2022-11-12T19:00:20.787Z,14.52
2022-11-12T19:05:20.730Z,14.57
2022-11-12T19:10:20.679Z,14.52
2022-11-12T19:15:26.442Z,14.45
2022-11-12T19:20:21.563Z,14.42
2022-11-12T19:25:20.506Z,14.30
2022-11-12T19:30:20.590Z,14.17
2022-11-12T19:35:20.511Z,14.08
2022-11-12T19:40:20.351Z,14.14
2022-11-12T19:45:20.287Z,14.16
2022-11-12T19:50:24.578Z,14.33
2022-11-12T19:55:20.308Z,14.51
2022-11-12T20:00:20.105Z,14.72
2022-11-12T20:05:20.070Z,14.58
2022-11-12T20:10:20.021Z,14.75
2022-11-12T20:15:20.058Z,14.94
2022-11-12T20:20:19.906Z,14.95
2022-11-12T20:25:19.854Z,14.80
2022-11-12T20:30:19.798Z,14.74
2022-11-12T20:35:22.432Z,14.55
2022-11-12T20:40:19.757Z,14.53
2022-11-12T20:45:19.633Z,14.87
2022-11-12T20:50:19.580Z,14.83
2022-11-12T20:55:19.635Z,14.80
2022-11-12T21:00:23.953Z,15.03
2022-11-12T21:05:19.391Z,15.12
2022-11-12T21:10:19.357Z,14.99
2022-11-12T21:15:19.414Z,14.72
2022-11-12T21:20:19.248Z,14.53
2022-11-12T21:25:19.210Z,14.58
2022-11-12T21:30:19.131Z,14.68
2022-11-12T21:35:19.210Z,14.69
2022-11-12T21:40:19.014Z,14.71
2022-11-12T21:45:18.971Z,14.75
2022-11-12T21:50:18.918Z,14.57
2022-11-12T21:55:18.977Z,14.51
2022-11-12T22:00:40.826Z,14.22
2022-11-12T22:05:19.765Z,14.13
2022-11-12T22:10:18.676Z,14.01
2022-11-12T22:15:24.022Z,13.77
2022-11-12T22:20:19.584Z,13.76
2022-11-12T22:25:18.532Z,13.78
2022-11-12T22:30:18.481Z,13.67
2022-11-12T22:35:18.538Z,13.64
2022-11-12T22:40:18.381Z,13.42
2022-11-12T22:45:18.351Z,13.39
2022-11-12T22:50:18.259Z,13.26
2022-11-12T22:55:18.324Z,13.09
2022-11-12T23:00:18.149Z,12.73
2022-11-12T23:05:18.100Z,12.56
2022-11-12T23:10:18.040Z,12.41
2022-11-12T23:15:18.111Z,12.36
2022-11-12T23:20:25.995Z,12.64
2022-11-12T23:25:17.888Z,12.90
2022-11-12T23:30:17.876Z,13.02
2022-11-12T23:35:17.922Z,13.03
2022-11-12T23:40:17.701Z,12.91
2022-11-12T23:45:17.672Z,12.93
2022-11-12T23:50:17.632Z,13.14
2022-11-12T23:55:17.678Z,13.14
